Gulkana Airport Gulkana US
ICAO: PAGK
IATA:
Category: Medium
Scheduled Services:

Elevation: 1586 ft
TransAlt. 18000 ft.

Airport Communications:
ASOS:134.85
ANCHORAGE CNTR:119.5
CTAF:122.9
KENAI RDO:122.2
TWEB:115.6

PAGK Zoom In..

If you have problems with the map follow the link
https://www.worldairports.se/pages/airport.php?
ICAO=PAGK

Runways:

(A) RW 15 length 5001 ft width 100 ft
---- / hdg 148

(B) RW 33 length 5001 ft width 100 ft
---- / hdg 328

Location; PAGK
Day. 24 / Time. 10.53 Zulu
* Altimeter: 30.14
* Temperature: 02° c. 35.6°f.
* Wind from: 160° Speed 08 kn.
Dewpoint: -03° c.
Visibility: 10 Statute Miles.
Clouds: Clear (automated report).

PAGK 241053Z AUTO 16008KT 10SM CLR 02/M03 A3014 RMK SLP224 T00171033 TSNO VIA AUTODIAL


Wind From 160°
Speed 08 kn.

 
 
jpsmedia.com for Web Design worldairports.se 2019   terms of use